createdAt,value
2019-04-19T00:02:08.096Z,6.60
2019-04-19T00:04:35.260Z,6.70
2019-04-19T00:07:14.373Z,6.35
2019-04-19T00:09:46.975Z,6.25
2019-04-19T00:12:20.762Z,6.17
2019-04-19T00:14:37.858Z,6.14
2019-04-19T00:17:14.767Z,6.28
2019-04-19T00:19:58.054Z,6.40
2019-04-19T00:22:38.647Z,6.17
2019-04-19T00:24:37.835Z,6.20
2019-04-19T00:27:07.648Z,6.15
2019-04-19T00:29:44.770Z,6.21
2019-04-19T00:32:20.710Z,6.18
2019-04-19T00:34:38.147Z,6.14
2019-04-19T00:37:07.852Z,5.85
2019-04-19T00:39:52.753Z,5.74
2019-04-19T00:42:35.643Z,5.89
2019-04-19T00:45:09.080Z,5.89
2019-04-19T00:47:41.162Z,5.90
2019-04-19T00:50:05.983Z,5.72
2019-04-19T00:52:52.257Z,5.59
2019-04-19T00:55:03.632Z,5.46
2019-04-19T00:57:36.070Z,5.35
2019-04-19T00:59:54.895Z,5.46
2019-04-19T01:02:24.878Z,5.51
2019-04-19T01:04:57.298Z,5.53
2019-04-19T01:07:30.858Z,5.49
2019-04-19T01:10:09.825Z,5.35
2019-04-19T01:12:43.193Z,5.41
2019-04-19T01:15:05.786Z,5.32
2019-04-19T01:17:46.011Z,5.39
2019-04-19T01:20:01.182Z,5.46
2019-04-19T01:22:30.141Z,5.57
2019-04-19T01:24:58.250Z,5.45
2019-04-19T01:27:29.538Z,5.42
2019-04-19T01:29:59.376Z,5.27
2019-04-19T01:32:28.383Z,5.32
2019-04-19T01:35:03.476Z,5.16
2019-04-19T01:37:28.688Z,5.41
2019-04-19T01:40:14.963Z,5.33
2019-04-19T01:42:43.854Z,4.88
2019-04-19T01:45:29.279Z,5.05
2019-04-19T01:48:22.158Z,5.04
2019-04-19T01:50:50.777Z,5.02
2019-04-19T01:53:21.771Z,4.96
2019-04-19T01:55:35.813Z,4.93
2019-04-19T01:58:06.782Z,4.92
2019-04-19T02:00:39.797Z,4.96
2019-04-19T02:03:07.561Z,4.98
2019-04-19T02:05:36.204Z,4.82
2019-04-19T02:08:08.391Z,4.76
2019-04-19T02:11:26.802Z,4.72
2019-04-19T02:13:51.294Z,4.87
2019-04-19T02:16:16.993Z,4.86
2019-04-19T02:18:43.092Z,4.81
2019-04-19T02:21:12.919Z,4.95
2019-04-19T02:23:50.794Z,4.81
2019-04-19T02:26:16.817Z,4.69
2019-04-19T02:28:44.573Z,4.71
2019-04-19T02:31:37.399Z,4.61
2019-04-19T02:34:16.095Z,4.37
2019-04-19T02:36:52.187Z,4.39
2019-04-19T02:41:40.112Z,4.47
2019-04-19T02:49:23.815Z,4.33
2019-04-19T02:51:50.235Z,4.52
2019-04-19T02:54:17.018Z,4.49
2019-04-19T02:59:37.174Z,4.16
2019-04-19T03:02:07.462Z,3.94
2019-04-19T03:06:47.706Z,3.98
2019-04-19T03:09:09.311Z,3.85
2019-04-19T03:11:53.284Z,3.88
2019-04-19T03:14:22.373Z,3.99
2019-04-19T03:17:02.250Z,3.90
2019-04-19T03:19:20.950Z,4.01
2019-04-19T03:21:55.029Z,4.02
2019-04-19T03:24:23.885Z,3.88
2019-04-19T03:26:54.060Z,4.05
2019-04-19T03:29:20.913Z,4.04
2019-04-19T03:32:27.993Z,4.00
2019-04-19T03:36:55.016Z,3.83
2019-04-19T03:39:29.798Z,3.97
2019-04-19T03:42:05.155Z,3.88
2019-04-19T03:44:34.343Z,3.75
2019-04-19T03:49:37.192Z,3.68
2019-04-19T03:52:15.646Z,3.62
2019-04-19T03:54:37.239Z,3.57
2019-04-19T03:57:04.803Z,3.59
2019-04-19T03:59:20.319Z,3.67
2019-04-19T04:01:53.290Z,3.68
2019-04-19T04:04:24.080Z,3.68
2019-04-19T04:06:50.552Z,3.67
2019-04-19T04:09:25.064Z,3.64
2019-04-19T04:12:03.234Z,3.60
2019-04-19T04:14:41.384Z,3.47
2019-04-19T04:17:00.174Z,3.11
2019-04-19T04:19:31.505Z,3.37
2019-04-19T04:22:00.728Z,3.39
2019-04-19T04:24:36.226Z,3.44
2019-04-19T04:27:07.658Z,3.44
2019-04-19T04:29:36.488Z,3.39
2019-04-19T04:32:15.089Z,3.38
2019-04-19T04:34:47.065Z,3.41
2019-04-19T04:37:20.389Z,3.30
2019-04-19T04:39:34.502Z,3.42
2019-04-19T04:42:11.314Z,3.43
2019-04-19T04:45:02.166Z,3.48
2019-04-19T04:47:25.716Z,3.51
2019-04-19T04:50:03.150Z,3.62
2019-04-19T04:52:33.583Z,3.62
2019-04-19T04:55:05.527Z,3.68
2019-04-19T04:57:42.858Z,3.52
2019-04-19T05:00:07.573Z,3.48
2019-04-19T05:02:55.322Z,3.34
2019-04-19T05:05:24.536Z,3.37
2019-04-19T05:07:58.070Z,3.62
2019-04-19T05:10:24.858Z,3.73
2019-04-19T05:15:43.329Z,5.79
2019-04-19T05:18:05.038Z,8.08
2019-04-19T05:20:29.145Z,7.57
2019-04-19T05:22:59.368Z,6.90
2019-04-19T05:25:36.268Z,6.66
2019-04-19T05:28:05.560Z,6.63
2019-04-19T05:30:13.317Z,6.83
2019-04-19T05:32:49.034Z,6.76
2019-04-19T05:35:25.845Z,6.97
2019-04-19T05:38:00.857Z,7.32
2019-04-19T05:40:38.881Z,6.95
2019-04-19T05:43:37.233Z,7.24
2019-04-19T05:46:03.721Z,7.56
2019-04-19T05:48:20.982Z,7.91
2019-04-19T05:51:06.115Z,7.94
2019-04-19T05:53:20.076Z,8.11
2019-04-19T05:55:38.965Z,8.37
2019-04-19T05:58:16.513Z,8.57
2019-04-19T06:00:55.931Z,8.32
2019-04-19T06:03:16.528Z,8.34
2019-04-19T06:08:18.596Z,8.90
2019-04-19T06:10:47.911Z,9.01
2019-04-19T06:13:14.172Z,9.13
2019-04-19T06:16:04.195Z,9.02
2019-04-19T06:18:26.082Z,9.20
2019-04-19T06:21:04.221Z,9.32
2019-04-19T06:23:38.713Z,9.75
2019-04-19T06:26:35.425Z,9.87
2019-04-19T06:28:43.928Z,10.20
2019-04-19T06:31:14.251Z,10.35
2019-04-19T06:33:32.091Z,10.64
2019-04-19T06:35:53.771Z,10.86
2019-04-19T06:38:17.921Z,10.68
2019-04-19T06:40:56.432Z,11.11
2019-04-19T06:43:33.580Z,11.20
2019-04-19T06:46:02.606Z,11.67
2019-04-19T06:48:22.215Z,11.80
2019-04-19T06:50:53.814Z,11.63
2019-04-19T06:53:18.984Z,12.27
2019-04-19T06:55:51.461Z,12.30
2019-04-19T06:58:24.022Z,12.31
2019-04-19T07:01:00.630Z,12.67
2019-04-19T07:03:19.620Z,12.77
2019-04-19T07:06:06.429Z,13.20
2019-04-19T07:08:59.371Z,12.33
2019-04-19T07:11:11.236Z,12.40
2019-04-19T07:13:32.297Z,12.91
2019-04-19T07:16:16.097Z,13.35
2019-04-19T07:18:33.768Z,13.57
2019-04-19T07:21:12.004Z,13.50
2019-04-19T07:23:43.733Z,13.60
2019-04-19T07:26:16.987Z,13.54
2019-04-19T07:28:28.491Z,13.53
2019-04-19T07:31:01.683Z,13.42
2019-04-19T07:33:41.509Z,13.55
2019-04-19T07:36:17.356Z,13.60
2019-04-19T07:38:53.357Z,13.38
2019-04-19T07:41:16.655Z,13.91
2019-04-19T07:43:48.354Z,14.59
2019-04-19T07:46:28.056Z,14.95
2019-04-19T07:48:40.650Z,14.60
2019-04-19T07:51:15.205Z,14.62
2019-04-19T07:53:46.267Z,14.95
2019-04-19T07:56:23.897Z,15.78
2019-04-19T07:59:05.094Z,16.22
2019-04-19T08:04:24.156Z,15.31
2019-04-19T08:06:43.728Z,15.11
2019-04-19T08:09:11.022Z,15.63
2019-04-19T08:11:46.850Z,16.25
2019-04-19T08:14:07.645Z,16.55
2019-04-19T08:28:56.711Z,16.38
2019-04-19T08:31:19.568Z,16.54
2019-04-19T08:33:49.504Z,16.79
2019-04-19T08:36:25.512Z,17.32
2019-04-19T08:39:19.137Z,17.56
2019-04-19T08:41:36.741Z,17.99
2019-04-19T08:44:10.305Z,18.73
2019-04-19T08:46:28.197Z,18.43
2019-04-19T08:49:24.127Z,18.54
2019-04-19T08:51:46.822Z,19.19
2019-04-19T08:54:36.940Z,19.05
2019-04-19T08:56:56.762Z,17.03
2019-04-19T08:59:39.891Z,18.05
2019-04-19T09:02:05.572Z,18.76
2019-04-19T09:04:34.907Z,19.66
2019-04-19T09:09:40.754Z,18.72
2019-04-19T09:12:06.791Z,18.02
2019-04-19T09:14:43.683Z,18.55
2019-04-19T09:17:17.404Z,18.37
2019-04-19T09:20:06.274Z,19.14
2019-04-19T09:22:09.140Z,19.93
2019-04-19T09:24:30.969Z,20.32
2019-04-19T09:27:07.891Z,20.40
2019-04-19T09:29:45.973Z,19.04
2019-04-19T09:32:02.718Z,18.71
2019-04-19T09:34:26.216Z,19.24
2019-04-19T09:37:03.703Z,18.98
2019-04-19T09:39:36.111Z,19.78
2019-04-19T09:41:59.904Z,19.99
2019-04-19T09:44:31.838Z,19.95
2019-04-19T09:46:55.047Z,19.92
2019-04-19T09:49:43.104Z,19.50
2019-04-19T09:52:11.409Z,19.66
2019-04-19T09:54:45.958Z,20.13
2019-04-19T09:57:15.780Z,20.20
2019-04-19T09:59:32.317Z,19.85
2019-04-19T10:02:00.479Z,18.88
2019-04-19T10:04:27.280Z,19.66
2019-04-19T10:06:56.551Z,20.10
2019-04-19T10:09:26.954Z,19.64
2019-04-19T10:11:57.914Z,20.33
2019-04-19T10:14:27.627Z,20.45
2019-04-19T10:16:58.624Z,19.78
2019-04-19T10:19:28.567Z,19.94
2019-04-19T10:22:00.333Z,19.80
2019-04-19T10:24:29.452Z,20.11
2019-04-19T10:27:01.001Z,20.11
2019-04-19T10:29:34.765Z,20.59
2019-04-19T10:32:12.639Z,20.07
2019-04-19T10:34:41.377Z,20.26
2019-04-19T10:37:11.299Z,20.68
2019-04-19T10:39:39.974Z,20.97
2019-04-19T10:42:10.318Z,20.46
2019-04-19T10:44:40.209Z,21.09
2019-04-19T10:47:10.156Z,22.01
2019-04-19T10:49:47.075Z,21.34
2019-04-19T10:52:23.763Z,21.12
2019-04-19T10:54:54.973Z,21.18
2019-04-19T10:57:25.450Z,20.57
2019-04-19T10:59:57.028Z,20.72
2019-04-19T11:02:28.443Z,20.33
2019-04-19T11:04:58.748Z,20.99
2019-04-19T11:07:27.672Z,20.84
2019-04-19T11:09:57.747Z,21.13
2019-04-19T11:12:26.621Z,20.42
2019-04-19T11:14:55.254Z,20.08
2019-04-19T11:17:25.550Z,20.58
2019-04-19T11:20:11.184Z,20.88
2019-04-19T11:22:25.865Z,21.72
2019-04-19T11:24:54.605Z,21.73
2019-04-19T11:27:23.267Z,21.31
2019-04-19T11:29:54.376Z,21.38
2019-04-19T11:32:26.036Z,20.67
2019-04-19T11:34:55.688Z,21.69
2019-04-19T11:37:25.501Z,21.27
2019-04-19T11:39:55.133Z,21.31
2019-04-19T11:42:23.984Z,21.29
2019-04-19T11:44:53.778Z,20.93
2019-04-19T11:47:23.114Z,20.56
2019-04-19T11:49:51.872Z,21.18
2019-04-19T11:52:22.083Z,20.98
2019-04-19T11:54:50.845Z,21.41
2019-04-19T11:57:40.755Z,21.61
2019-04-19T12:00:13.625Z,21.73
2019-04-19T12:02:44.198Z,20.74
2019-04-19T12:05:21.110Z,20.74
2019-04-19T12:07:44.393Z,20.69
2019-04-19T12:10:14.472Z,21.18
2019-04-19T12:12:43.489Z,20.80
2019-04-19T12:15:14.061Z,21.12
2019-04-19T12:17:44.330Z,21.34
2019-04-19T12:20:13.268Z,20.90
2019-04-19T12:22:42.016Z,21.44
2019-04-19T12:25:11.923Z,20.88
2019-04-19T12:27:41.548Z,21.38
2019-04-19T12:30:11.571Z,21.68
2019-04-19T12:32:43.659Z,21.73
2019-04-19T12:35:13.076Z,20.98
2019-04-19T12:37:43.112Z,21.09
2019-04-19T12:40:12.857Z,21.07
2019-04-19T12:42:42.158Z,21.66
2019-04-19T12:45:13.238Z,21.60
2019-04-19T12:47:42.907Z,21.11
2019-04-19T12:50:14.282Z,20.93
2019-04-19T12:52:44.067Z,21.76
2019-04-19T12:55:15.280Z,22.19
2019-04-19T12:57:48.300Z,22.14
2019-04-19T13:00:18.283Z,22.32
2019-04-19T13:02:49.712Z,22.36
2019-04-19T13:05:20.438Z,21.93
2019-04-19T13:07:49.374Z,21.83
2019-04-19T13:10:18.371Z,21.85
2019-04-19T13:12:49.745Z,21.16
2019-04-19T13:15:19.937Z,21.61
2019-04-19T13:17:48.616Z,20.97
2019-04-19T13:20:22.925Z,21.17
2019-04-19T13:22:50.533Z,21.09
2019-04-19T13:25:23.510Z,21.62
2019-04-19T13:27:56.307Z,21.27
2019-04-19T13:30:31.430Z,21.49
2019-04-19T13:32:54.666Z,21.57
2019-04-19T13:35:23.503Z,21.83
2019-04-19T13:37:57.055Z,21.58
2019-04-19T13:40:28.310Z,21.32
2019-04-19T13:42:58.789Z,21.57
2019-04-19T13:45:31.330Z,21.63
2019-04-19T13:47:58.706Z,21.25
2019-04-19T13:50:33.180Z,21.36
2019-04-19T13:52:58.135Z,21.65
2019-04-19T13:55:26.836Z,21.16
2019-04-19T13:57:55.726Z,21.11
2019-04-19T14:00:42.726Z,21.58
2019-04-19T14:03:11.986Z,21.59
2019-04-19T14:05:41.680Z,21.52
2019-04-19T14:08:11.157Z,20.90
2019-04-19T14:10:41.321Z,21.01
2019-04-19T14:13:10.622Z,21.31
2019-04-19T14:15:40.775Z,21.46
2019-04-19T14:18:10.855Z,21.80
2019-04-19T14:20:45.176Z,21.19
2019-04-19T14:23:10.192Z,21.05
2019-04-19T14:25:39.113Z,21.26
2019-04-19T14:28:09.335Z,21.29
2019-04-19T14:30:39.835Z,20.95
2019-04-19T14:33:08.536Z,21.41
2019-04-19T14:35:37.739Z,21.85
2019-04-19T14:38:07.593Z,21.74
2019-04-19T14:40:37.521Z,21.63
2019-04-19T14:43:06.704Z,21.30
2019-04-19T14:45:35.565Z,21.68
2019-04-19T14:48:06.690Z,21.29
2019-04-19T14:50:46.258Z,21.52
2019-04-19T14:53:08.049Z,21.34
2019-04-19T14:55:38.096Z,21.34
2019-04-19T14:58:06.999Z,21.13
2019-04-19T15:00:36.897Z,21.36
2019-04-19T15:03:09.362Z,21.54
2019-04-19T15:05:43.636Z,21.65
2019-04-19T15:08:12.831Z,21.27
2019-04-19T15:10:41.873Z,21.22
2019-04-19T15:13:10.582Z,21.09
2019-04-19T15:15:39.216Z,21.33
2019-04-19T15:18:08.772Z,21.16
2019-04-19T15:20:43.762Z,21.50
2019-04-19T15:23:10.902Z,21.24
2019-04-19T15:25:40.414Z,21.21
2019-04-19T15:28:09.291Z,21.35
2019-04-19T15:30:41.836Z,21.19
2019-04-19T15:33:08.735Z,21.30
2019-04-19T15:35:37.586Z,21.22
2019-04-19T15:38:06.160Z,21.40
2019-04-19T15:40:36.167Z,21.18
2019-04-19T15:43:05.368Z,20.78
2019-04-19T15:45:34.932Z,21.07
2019-04-19T15:48:04.777Z,20.98
2019-04-19T15:50:34.058Z,20.97
2019-04-19T15:53:04.058Z,20.90
2019-04-19T15:55:32.956Z,20.73
2019-04-19T15:58:02.126Z,20.30
2019-04-19T16:00:50.814Z,20.23
2019-04-19T16:03:24.031Z,19.91
2019-04-19T16:06:00.368Z,19.47
2019-04-19T16:08:47.526Z,19.30
2019-04-19T16:11:30.982Z,19.11
2019-04-19T16:13:59.892Z,18.59
2019-04-19T16:16:29.088Z,18.40
2019-04-19T16:18:58.402Z,18.43
2019-04-19T16:21:37.131Z,18.43
2019-04-19T16:23:58.659Z,18.37
2019-04-19T16:26:27.330Z,18.17
2019-04-19T16:28:55.996Z,17.93
2019-04-19T16:31:24.639Z,18.01
2019-04-19T16:33:54.179Z,18.00
2019-04-19T16:36:23.323Z,17.65
2019-04-19T16:38:52.996Z,17.48
2019-04-19T16:41:23.071Z,17.40
2019-04-19T16:43:51.866Z,17.20
2019-04-19T16:46:24.270Z,17.11
2019-04-19T16:48:50.979Z,16.74
2019-04-19T16:51:19.695Z,16.69
2019-04-19T16:53:49.776Z,16.88
2019-04-19T16:56:19.581Z,16.80
2019-04-19T16:58:48.800Z,16.57
2019-04-19T17:01:18.647Z,16.35
2019-04-19T17:03:47.845Z,16.55
2019-04-19T17:06:16.653Z,16.40
2019-04-19T17:08:46.187Z,16.47
2019-04-19T17:11:15.513Z,16.23
2019-04-19T17:13:44.798Z,16.20
2019-04-19T17:16:25.221Z,16.12
2019-04-19T17:18:58.968Z,15.90
2019-04-19T17:21:29.422Z,15.93
2019-04-19T17:23:58.730Z,15.90
2019-04-19T17:26:28.890Z,15.94
2019-04-19T17:28:59.037Z,15.85
2019-04-19T17:31:28.312Z,15.92
2019-04-19T17:33:58.030Z,15.68
2019-04-19T17:36:28.200Z,15.57
2019-04-19T17:38:58.739Z,15.43
2019-04-19T17:41:28.149Z,15.24
2019-04-19T17:43:57.452Z,15.13
2019-04-19T17:46:26.498Z,15.06
2019-04-19T17:48:56.793Z,15.07
2019-04-19T17:51:25.675Z,14.98
2019-04-19T17:53:54.372Z,14.79
2019-04-19T17:56:23.655Z,14.57
2019-04-19T17:58:54.008Z,14.50
2019-04-19T18:01:24.198Z,14.49
2019-04-19T18:03:53.285Z,14.30
2019-04-19T18:06:21.992Z,14.24
2019-04-19T18:08:51.798Z,14.17
2019-04-19T18:11:25.190Z,13.97
2019-04-19T18:13:51.081Z,14.08
2019-04-19T18:16:20.647Z,14.03
2019-04-19T18:18:52.283Z,13.95
2019-04-19T18:21:23.854Z,14.00
2019-04-19T18:23:58.321Z,14.01
2019-04-19T18:26:28.267Z,13.88
2019-04-19T18:28:53.051Z,13.84
2019-04-19T18:31:28.463Z,13.83
2019-04-19T18:34:01.114Z,13.76
2019-04-19T18:36:25.701Z,13.68
2019-04-19T18:38:53.947Z,13.60
2019-04-19T18:41:23.170Z,13.34
2019-04-19T18:44:04.973Z,13.10
2019-04-19T18:46:22.734Z,13.20
2019-04-19T18:48:51.789Z,13.05
2019-04-19T18:51:31.681Z,13.02
2019-04-19T18:54:05.836Z,13.03
2019-04-19T18:56:25.408Z,12.85
2019-04-19T18:58:54.218Z,12.71
2019-04-19T19:01:30.956Z,12.35
2019-04-19T19:03:53.854Z,12.45
2019-04-19T19:06:28.608Z,12.28
2019-04-19T19:09:01.032Z,12.13
2019-04-19T19:11:25.787Z,12.14
2019-04-19T19:13:55.165Z,11.94
2019-04-19T19:16:27.146Z,11.95
2019-04-19T19:18:59.112Z,11.96
2019-04-19T19:21:33.879Z,12.00
2019-04-19T19:24:26.059Z,11.79
2019-04-19T19:26:36.027Z,11.78
2019-04-19T19:29:02.301Z,11.88
2019-04-19T19:31:32.558Z,11.87
2019-04-19T19:34:01.675Z,11.97
2019-04-19T19:36:37.987Z,11.98
2019-04-19T19:39:08.595Z,11.98
2019-04-19T19:42:21.799Z,11.95
2019-04-19T19:44:13.222Z,11.91
2019-04-19T19:47:07.105Z,11.86
2019-04-19T19:51:49.941Z,11.94
2019-04-19T19:54:43.459Z,11.67
2019-04-19T19:57:02.279Z,11.59
2019-04-19T19:59:24.004Z,11.53
2019-04-19T20:01:54.543Z,11.30
2019-04-19T20:04:13.218Z,11.28
2019-04-19T20:06:49.083Z,11.31
2019-04-19T20:09:16.683Z,11.26
2019-04-19T20:11:43.783Z,11.16
2019-04-19T20:14:15.668Z,11.09
2019-04-19T20:16:45.396Z,11.13
2019-04-19T20:19:16.250Z,11.02
2019-04-19T20:21:50.468Z,10.98
2019-04-19T20:24:31.268Z,10.84
2019-04-19T20:26:57.284Z,10.59
2019-04-19T20:29:22.300Z,10.59
2019-04-19T20:31:46.021Z,10.63
2019-04-19T20:34:22.653Z,10.76
2019-04-19T20:36:47.148Z,10.56
2019-04-19T20:39:17.959Z,10.42
2019-04-19T20:41:50.720Z,10.50
2019-04-19T20:44:35.000Z,10.40
2019-04-19T20:46:48.299Z,10.26
2019-04-19T20:49:17.229Z,10.21
2019-04-19T20:52:00.807Z,10.03
2019-04-19T20:54:46.320Z,9.83
2019-04-19T20:57:21.191Z,9.37
2019-04-19T20:59:41.122Z,9.52
2019-04-19T21:02:15.371Z,9.63
2019-04-19T21:04:34.653Z,9.66
2019-04-19T21:07:08.915Z,9.64
2019-04-19T21:09:37.363Z,9.59
2019-04-19T21:12:04.609Z,9.76
2019-04-19T21:14:38.190Z,9.50
2019-04-19T21:17:06.933Z,9.56
2019-04-19T21:19:38.333Z,9.44
2019-04-19T21:22:06.327Z,9.52
2019-04-19T21:24:51.900Z,9.49
2019-04-19T21:27:10.761Z,9.38
2019-04-19T21:29:39.334Z,9.33
2019-04-19T21:32:06.938Z,9.47
2019-04-19T21:34:38.598Z,9.35
2019-04-19T21:37:08.756Z,9.36
2019-04-19T21:39:44.133Z,9.32
2019-04-19T21:42:09.752Z,9.28
2019-04-19T21:44:38.806Z,9.07
2019-04-19T21:47:10.882Z,9.13
2019-04-19T21:49:39.007Z,9.16
2019-04-19T21:52:13.786Z,9.24
2019-04-19T21:54:38.848Z,9.62
2019-04-19T21:57:08.897Z,9.23
2019-04-19T21:59:40.673Z,9.08
2019-04-19T22:02:08.741Z,8.87
2019-04-19T22:04:43.787Z,8.86
2019-04-19T22:07:09.017Z,8.93
2019-04-19T22:09:41.453Z,8.93
2019-04-19T22:12:08.233Z,8.92
2019-04-19T22:14:38.123Z,8.70
2019-04-19T22:17:12.807Z,8.51
2019-04-19T22:19:38.691Z,8.71
2019-04-19T22:22:09.025Z,8.57
2019-04-19T22:24:39.865Z,8.60
2019-04-19T22:27:09.520Z,8.39
2019-04-19T22:29:38.269Z,7.97
2019-04-19T22:32:13.623Z,8.05
2019-04-19T22:34:37.756Z,8.24
2019-04-19T22:37:06.800Z,8.21
2019-04-19T22:39:35.680Z,8.36
2019-04-19T22:42:04.734Z,8.33
2019-04-19T22:44:34.631Z,8.20
2019-04-19T22:47:03.855Z,7.94
2019-04-19T22:49:35.194Z,8.03
2019-04-19T22:52:03.171Z,8.12
2019-04-19T22:54:32.861Z,8.13
2019-04-19T22:57:09.543Z,8.04
2019-04-19T22:59:32.016Z,7.98
2019-04-19T23:02:10.350Z,7.91
2019-04-19T23:04:39.116Z,7.74
2019-04-19T23:07:10.961Z,7.63
2019-04-19T23:09:38.860Z,7.68
2019-04-19T23:12:07.795Z,7.64
2019-04-19T23:14:50.540Z,7.45
2019-04-19T23:17:28.447Z,7.37
2019-04-19T23:19:53.344Z,7.59
2019-04-19T23:22:22.824Z,7.61
2019-04-19T23:24:56.773Z,7.47
2019-04-19T23:27:34.654Z,7.54
2019-04-19T23:29:54.033Z,7.50
2019-04-19T23:32:28.573Z,7.33
2019-04-19T23:34:54.179Z,7.19
2019-04-19T23:37:24.033Z,7.15
2019-04-19T23:39:54.375Z,7.16
2019-04-19T23:42:23.148Z,7.07
2019-04-19T23:44:56.412Z,7.12
2019-04-19T23:47:22.469Z,7.10
2019-04-19T23:49:55.509Z,7.02
2019-04-19T23:52:23.385Z,6.87
2019-04-19T23:54:52.391Z,6.85
2019-04-19T23:57:26.244Z,6.82
2019-04-19T23:59:59.788Z,6.72
